Time;durP1;ratioP1;P1;durP2;ratioP2;P2;SDS_P1;SDS_P2;PMS_P1;PMS_P2;Temp;Humidity;BMP_temperature;BMP_pressure;BME280_temperature;BME280_humidity;BME280_pressure;Samples;Min_cycle;Max_cycle;Signal;HPM_P1;HPM_P2
2023/03/02 00:01:42;;;;;;;41.60;18.30;;;;;;;-146.27;96.97;48395.59;5082810;28;20032;-77
2023/03/02 00:04:13;;;;;;;37.70;19.00;;;;;;;-146.27;97.79;48405.56;5090939;28;20020;-75
2023/03/02 00:06:38;;;;;;;43.25;21.67;;;;;;;-146.27;99.09;48401.56;5088840;28;20047;-76
2023/03/02 00:09:07;;;;;;;44.10;21.92;;;;;;;-146.27;99.78;48409.53;5089093;28;20020;-78
2023/03/02 00:11:35;;;;;;;49.97;24.77;;;;;;;-146.27;100.00;48419.50;5089239;28;20471;-77
2023/03/02 00:14:01;;;;;;;50.08;23.90;;;;;;;-146.27;100.00;48441.41;5090342;28;20525;-76
2023/03/02 00:16:27;;;;;;;46.65;22.15;;;;;;;-146.27;100.00;48455.34;5088423;28;20036;-76
2023/03/02 00:18:52;;;;;;;52.03;24.45;;;;;;;-146.27;100.00;48427.47;5091220;28;20048;-77
2023/03/02 00:21:17;;;;;;;48.42;23.05;;;;;;;-146.27;100.00;48407.56;5090430;28;20383;-76
2023/03/02 00:23:43;;;;;;;50.22;22.05;;;;;;;-146.27;100.00;48423.50;5092090;28;20078;-77
2023/03/02 00:26:09;;;;;;;50.50;23.92;;;;;;;-146.27;100.00;48395.59;5081393;28;20039;-75
2023/03/02 00:28:34;;;;;;;57.92;24.23;;;;;;;-146.27;100.00;48441.41;5095340;28;20024;-76
2023/03/02 00:31:03;;;;;;;52.38;24.20;;;;;;;-146.27;100.00;48427.47;5096574;28;20063;-75
2023/03/02 00:33:30;;;;;;;49.08;25.13;;;;;;;-146.27;100.00;48421.50;5094936;28;20023;-77
2023/03/02 00:35:55;;;;;;;50.97;26.33;;;;;;;-146.27;100.00;48415.53;5089984;28;20065;-76
2023/03/02 00:38:20;;;;;;;58.90;26.00;;;;;;;-146.27;100.00;48435.44;5098070;28;20160;-77
2023/03/02 00:40:48;;;;;;;52.00;24.27;;;;;;;-146.27;100.00;48405.56;5093605;28;20036;-76
2023/03/02 00:43:14;;;;;;;54.30;24.73;;;;;;;-146.27;100.00;48447.38;5098023;28;20031;-77
2023/03/02 00:45:39;;;;;;;52.40;24.38;;;;;;;-146.27;100.00;48449.38;5092980;28;20020;-77
2023/03/02 00:48:05;;;;;;;53.45;26.02;;;;;;;-146.27;100.00;48395.59;5098302;28;20099;-77
2023/03/02 00:50:30;;;;;;;48.70;25.63;;;;;;;-146.27;100.00;48425.47;5098115;28;20043;-76
2023/03/02 00:52:56;;;;;;;56.00;26.58;;;;;;;-146.27;100.00;48405.56;5086272;28;20063;-76
2023/03/02 00:55:21;;;;;;;51.20;22.70;;;;;;;-146.27;100.00;48423.50;5096792;28;20449;-76
2023/03/02 00:57:54;;;;;;;46.92;24.13;;;;;;;-146.27;100.00;48451.38;5087341;28;20020;-75
2023/03/02 01:00:23;;;;;;;54.97;25.85;;;;;;;-146.27;100.00;48417.50;5092007;28;20024;-76
2023/03/02 01:02:49;;;;;;;52.38;25.40;;;;;;;-146.27;100.00;48445.41;5080251;28;20375;-76
2023/03/02 01:05:16;;;;;;;56.63;25.70;;;;;;;-146.27;100.00;48399.59;5097005;28;20028;-77
2023/03/02 01:07:41;;;;;;;51.42;24.85;;;;;;;-146.27;100.00;48451.38;5096924;28;20108;-77
2023/03/02 01:10:08;;;;;;;51.85;26.30;;;;;;;-146.27;100.00;48405.56;5096628;28;20111;-76
2023/03/02 01:12:34;;;;;;;57.03;25.73;;;;;;;-146.27;100.00;48419.50;5097136;28;20032;-77
2023/03/02 01:15:01;;;;;;;58.63;27.73;;;;;;;-146.27;100.00;48439.41;5091050;28;20056;-77
2023/03/02 01:17:26;;;;;;;58.75;27.52;;;;;;;-146.27;100.00;48403.56;5086905;28;20043;-78
2023/03/02 01:19:53;;;;;;;57.05;27.58;;;;;;;-146.27;100.00;48415.53;5095354;28;20085;-79
2023/03/02 01:22:19;;;;;;;52.53;25.83;;;;;;;-146.27;100.00;48439.41;5096842;28;20026;-76
2023/03/02 01:24:44;;;;;;;59.35;27.55;;;;;;;-146.27;100.00;48379.66;5088398;28;20020;-76
2023/03/02 01:27:10;;;;;;;58.83;26.08;;;;;;;-146.27;100.00;48407.56;5093573;28;20444;-76
2023/03/02 01:29:36;;;;;;;56.88;26.30;;;;;;;-146.27;100.00;48439.41;5095567;28;20099;-79
2023/03/02 01:32:02;;;;;;;63.40;27.85;;;;;;;-146.27;100.00;48415.53;5097066;28;20031;-77
2023/03/02 01:34:28;;;;;;;61.22;27.75;;;;;;;-146.27;100.00;48435.44;5097003;28;20115;-77
2023/03/02 01:36:53;;;;;;;60.25;25.20;;;;;;;-146.27;100.00;48403.56;5094970;28;20497;-77
2023/03/02 01:39:21;;;;;;;59.38;27.02;;;;;;;-146.27;100.00;48419.50;5094214;28;20019;-77
2023/03/02 01:41:47;;;;;;;55.15;26.70;;;;;;;-146.27;100.00;48439.41;5087448;28;20107;-76
2023/03/02 01:44:38;;;;;;;56.83;26.58;;;;;;;-146.27;100.00;48447.38;5082433;28;20424;-76
2023/03/02 01:47:18;;;;;;;59.38;25.45;;;;;;;-146.27;100.00;48427.47;5075720;28;20032;-76
2023/03/02 01:49:48;;;;;;;67.28;24.95;;;;;;;-146.27;100.00;48383.66;5092892;28;20020;-76
2023/03/02 01:52:14;;;;;;;51.85;24.75;;;;;;;-146.27;100.00;48405.56;5090331;28;20034;-76
2023/03/02 01:54:41;;;;;;;59.35;25.45;;;;;;;-146.27;100.00;48423.50;5095679;28;20109;-76
2023/03/02 01:57:07;;;;;;;60.22;25.90;;;;;;;-146.27;100.00;48413.53;5094632;28;20020;-76
2023/03/02 01:59:35;;;;;;;59.53;27.10;;;;;;;-146.27;100.00;48439.41;5075618;28;20086;-76
2023/03/02 02:02:04;;;;;;;63.45;25.33;;;;;;;-146.27;100.00;48411.53;5094509;28;20052;-77
2023/03/02 02:04:31;;;;;;;68.47;25.77;;;;;;;-146.27;100.00;48417.50;5089301;28;20063;-76
2023/03/02 02:07:07;;;;;;;58.35;25.42;;;;;;;-146.27;100.00;48455.34;5086698;28;20047;-77
2023/03/02 02:09:39;;;;;;;63.88;25.42;;;;;;;-146.27;100.00;48387.63;5093966;28;20030;-76
2023/03/02 02:12:04;;;;;;;63.70;24.88;;;;;;;-146.27;100.00;48413.53;5095529;28;20036;-75
2023/03/02 02:14:30;;;;;;;62.40;25.13;;;;;;;-146.27;100.00;48429.47;5076139;28;20475;-76
2023/03/02 02:16:55;;;;;;;63.38;25.00;;;;;;;-146.27;100.00;48423.50;5080566;28;20028;-78
2023/03/02 02:19:38;;;;;;;59.00;23.48;;;;;;;-146.27;100.00;48467.31;5094470;28;20456;-76
2023/03/02 02:22:03;;;;;;;62.13;24.00;;;;;;;-146.27;100.00;48447.38;5094179;28;20032;-77
2023/03/02 02:27:50;;;;;;;59.30;24.45;;;;;;;-146.27;100.00;48395.59;5091765;28;20062;-76
2023/03/02 02:30:17;;;;;;;62.35;25.40;;;;;;;-146.27;100.00;48463.31;5072269;28;21866;-76
2023/03/02 02:32:44;;;;;;;61.20;24.67;;;;;;;-146.27;100.00;48419.50;5092523;28;20035;-74
2023/03/02 02:35:26;;;;;;;56.97;23.10;;;;;;;-146.27;100.00;48413.53;5091725;28;20031;-77
2023/03/02 02:38:00;;;;;;;56.38;23.15;;;;;;;-146.27;100.00;48391.63;5073941;28;20406;-75
2023/03/02 02:40:40;;;;;;;60.47;25.88;;;;;;;-146.27;100.00;48435.44;5090587;28;20055;-75
2023/03/02 02:43:08;;;;;;;62.97;24.80;;;;;;;-146.27;100.00;48439.41;5092076;28;20036;-77
2023/03/02 02:45:35;;;;;;;60.78;24.33;;;;;;;-146.27;100.00;48401.56;5090397;28;20087;-76
2023/03/02 02:48:00;;;;;;;58.55;24.00;;;;;;;-146.27;100.00;48435.44;5090443;28;20035;-76
2023/03/02 02:50:31;;;;;;;60.92;23.52;;;;;;;-146.27;100.00;48435.44;5090063;28;20589;-77
2023/03/02 02:53:01;;;;;;;56.88;23.20;;;;;;;-146.27;100.00;48457.34;5089246;28;20501;-75
2023/03/02 02:55:29;;;;;;;59.90;23.35;;;;;;;-146.27;100.00;48415.53;5091037;28;20032;-75
2023/03/02 02:57:59;;;;;;;57.88;24.35;;;;;;;-146.27;100.00;48443.41;5086307;28;20036;-77
2023/03/02 03:00:25;;;;;;;55.67;22.88;;;;;;;-146.27;100.00;48431.47;5093323;28;20450;-75
2023/03/02 03:02:58;;;;;;;51.10;21.98;;;;;;;-146.27;100.00;48439.41;5093650;28;20020;-75
2023/03/02 03:05:24;;;;;;;59.60;24.63;;;;;;;-146.27;100.00;48435.44;5091601;28;20077;-76
2023/03/02 03:07:49;;;;;;;57.00;23.10;;;;;;;-146.27;100.00;48401.56;5091930;28;20048;-76
2023/03/02 03:10:33;;;;;;;67.45;25.13;;;;;;;-146.27;100.00;48443.41;5091354;28;21811;-76
2023/03/02 03:13:00;;;;;;;62.25;22.67;;;;;;;-146.27;100.00;48435.44;5094132;28;20016;-77
2023/03/02 03:15:25;;;;;;;66.15;25.23;;;;;;;-146.27;100.00;48451.38;5093106;28;20032;-76
2023/03/02 03:17:55;;;;;;;53.58;24.15;;;;;;;-146.27;100.00;48409.53;5094108;28;20534;-75
2023/03/02 03:20:23;;;;;;;53.50;22.58;;;;;;;-146.27;100.00;48411.53;5089157;28;20482;-76
2023/03/02 03:22:49;;;;;;;56.47;23.15;;;;;;;-146.27;100.00;48463.31;5088991;28;20099;-76
2023/03/02 03:25:14;;;;;;;55.78;23.38;;;;;;;-146.27;100.00;48425.47;5091750;28;20575;-77
2023/03/02 03:27:41;;;;;;;58.42;23.55;;;;;;;-146.27;100.00;48459.34;5091866;28;20035;-76
2023/03/02 03:30:09;;;;;;;53.55;21.38;;;;;;;-146.27;100.00;48427.47;5092877;28;20035;-77
2023/03/02 03:32:34;;;;;;;48.75;22.08;;;;;;;-146.27;100.00;48435.44;5093739;28;20028;-77
2023/03/02 03:35:01;;;;;;;56.70;23.00;;;;;;;-146.27;100.00;48439.41;5091914;28;20103;-76
2023/03/02 03:37:27;;;;;;;60.22;23.23;;;;;;;-146.27;100.00;48439.41;5091840;28;20074;-76
2023/03/02 03:39:52;;;;;;;55.90;23.05;;;;;;;-146.27;100.00;48451.38;5089302;28;20020;-79
2023/03/02 03:42:18;;;;;;;60.13;24.02;;;;;;;-146.27;100.00;48457.34;5089386;28;20065;-76
2023/03/02 03:44:43;;;;;;;62.63;24.90;;;;;;;-146.27;100.00;48413.53;5092843;28;20398;-78
2023/03/02 03:47:08;;;;;;;62.20;24.30;;;;;;;-146.27;100.00;48399.59;5093598;28;20074;-76
2023/03/02 03:49:34;;;;;;;65.22;25.45;;;;;;;-146.27;100.00;48449.38;5092120;28;20034;-77
2023/03/02 03:52:00;;;;;;;63.03;25.38;;;;;;;-146.27;100.00;48425.47;5091992;28;20031;-76
2023/03/02 03:54:25;;;;;;;64.72;24.00;;;;;;;-146.27;100.00;48447.38;5090760;28;20059;-76
2023/03/02 03:56:51;;;;;;;58.00;24.17;;;;;;;-146.27;100.00;48435.44;5083747;28;20031;-76
2023/03/02 03:59:19;;;;;;;58.60;24.58;;;;;;;-146.27;100.00;48457.34;5076858;28;20106;-77
2023/03/02 04:01:48;;;;;;;64.57;25.13;;;;;;;-146.27;100.00;48453.38;5093516;28;20032;-77
2023/03/02 04:04:17;;;;;;;56.42;25.50;;;;;;;-146.27;100.00;48445.41;5089974;28;20038;-76
2023/03/02 04:06:43;;;;;;;60.05;23.25;;;;;;;-146.27;100.00;48463.31;5077339;28;20177;-76
2023/03/02 04:09:11;;;;;;;59.67;24.65;;;;;;;-146.27;100.00;48399.59;5080254;28;20506;-78
2023/03/02 04:11:38;;;;;;;57.95;24.20;;;;;;;-146.27;100.00;48413.53;5093340;28;20028;-76
2023/03/02 04:14:04;;;;;;;60.85;23.60;;;;;;;-146.27;100.00;48445.41;5093011;28;20024;-77
2023/03/02 04:16:31;;;;;;;63.63;24.83;;;;;;;-146.27;100.00;48425.47;5091990;28;20080;-75
2023/03/02 04:18:57;;;;;;;65.32;24.60;;;;;;;-146.27;100.00;48459.34;5093194;28;20084;-77
2023/03/02 04:21:23;;;;;;;63.25;25.48;;;;;;;-146.27;100.00;48423.50;5088809;28;20391;-76
2023/03/02 04:23:48;;;;;;;62.58;26.05;;;;;;;-146.27;100.00;48475.28;5084185;28;20024;-77
2023/03/02 04:26:14;;;;;;;60.45;23.67;;;;;;;-146.27;100.00;48477.25;5092045;28;20035;-78
2023/03/02 04:28:39;;;;;;;62.67;23.95;;;;;;;-146.27;100.00;48411.53;5078536;28;20026;-77
2023/03/02 04:31:04;;;;;;;67.13;23.40;;;;;;;-146.27;100.00;48461.34;5076344;28;20111;-78
2023/03/02 04:33:30;;;;;;;68.43;24.38;;;;;;;-146.27;100.00;48415.53;5090989;28;20032;-77
2023/03/02 04:35:55;;;;;;;62.67;24.33;;;;;;;-146.27;100.00;48435.44;5093160;28;20383;-78
2023/03/02 04:38:21;;;;;;;60.78;24.70;;;;;;;-146.27;100.00;48439.41;5092816;28;20403;-77
2023/03/02 04:40:47;;;;;;;60.25;23.73;;;;;;;-146.27;100.00;48439.41;5079301;28;20039;-77
2023/03/02 04:43:12;;;;;;;58.90;23.17;;;;;;;-146.27;100.00;48429.47;5074114;28;20024;-77
2023/03/02 04:45:38;;;;;;;54.50;23.08;;;;;;;-146.27;100.00;48439.41;5089720;28;20032;-76
2023/03/02 04:48:05;;;;;;;60.00;22.05;;;;;;;-146.27;100.00;48455.34;5092052;28;20048;-76
2023/03/02 04:50:30;;;;;;;58.30;22.35;;;;;;;-146.27;100.00;48455.34;5089734;28;20237;-78
2023/03/02 04:52:55;;;;;;;52.90;21.85;;;;;;;-146.27;100.00;48429.47;5075726;28;20103;-76
2023/03/02 04:55:24;;;;;;;55.58;22.55;;;;;;;-146.27;100.00;48413.53;5090992;28;20081;-77
2023/03/02 04:57:50;;;;;;;48.47;20.45;;;;;;;-146.27;100.00;48455.34;5089590;28;20070;-76
2023/03/02 05:00:17;;;;;;;51.90;21.48;;;;;;;-146.27;100.00;48399.59;5087701;28;20052;-77
2023/03/02 05:02:42;;;;;;;53.22;21.83;;;;;;;-146.27;100.00;48465.31;5084051;28;20370;-77
2023/03/02 05:05:16;;;;;;;58.10;22.13;;;;;;;-146.27;100.00;48455.34;5091800;28;20032;-77
2023/03/02 05:07:41;;;;;;;55.70;21.98;;;;;;;-146.27;100.00;48429.47;5090890;28;20134;-77
2023/03/02 05:10:07;;;;;;;48.45;21.13;;;;;;;-146.27;100.00;48435.44;5085412;28;20096;-77
2023/03/02 05:12:53;;;;;;;50.75;20.73;;;;;;;-146.27;100.00;48445.41;5081105;28;20045;-77
2023/03/02 05:15:18;;;;;;;49.22;20.02;;;;;;;-146.27;100.00;48387.63;5092348;28;20016;-77
2023/03/02 05:17:44;;;;;;;49.97;22.63;;;;;;;-146.27;100.00;48463.31;5083618;28;20464;-78
2023/03/02 05:20:10;;;;;;;50.25;19.95;;;;;;;-146.27;100.00;48435.44;5092183;28;20016;-76
2023/03/02 05:22:37;;;;;;;53.03;20.60;;;;;;;-146.27;100.00;48411.53;5083220;28;20032;-77
2023/03/02 05:25:02;;;;;;;53.90;21.80;;;;;;;-146.27;100.00;48465.31;5092246;28;20123;-77
2023/03/02 05:27:28;;;;;;;47.90;20.02;;;;;;;-146.27;100.00;48437.44;5094962;28;20698;-77
2023/03/02 05:29:53;;;;;;;48.08;20.73;;;;;;;-146.27;100.00;48419.50;5089620;28;20110;-76
2023/03/02 05:32:19;;;;;;;50.78;20.88;;;;;;;-146.27;100.00;48479.25;5096710;28;20104;-76
2023/03/02 05:34:44;;;;;;;50.22;19.42;;;;;;;-146.27;100.00;48415.53;5095335;28;20056;-80
2023/03/02 05:37:10;;;;;;;50.72;20.45;;;;;;;-146.27;100.00;48423.50;5086426;28;20060;-76
2023/03/02 05:39:35;;;;;;;45.17;18.95;;;;;;;-146.27;100.00;48451.38;5091991;28;20491;-77
2023/03/02 05:42:01;;;;;;;56.78;20.67;;;;;;;-146.27;100.00;48429.47;5094322;28;20078;-76
2023/03/02 05:44:26;;;;;;;53.85;21.52;;;;;;;-146.27;100.00;48427.47;5094368;28;20016;-78
2023/03/02 05:46:51;;;;;;;57.90;21.00;;;;;;;-146.27;100.00;48455.34;5095965;28;20357;-77
2023/03/02 05:49:17;;;;;;;55.50;20.48;;;;;;;-146.27;100.00;48433.44;5093021;28;20043;-78
2023/03/02 05:51:42;;;;;;;47.15;20.40;;;;;;;-146.27;100.00;48453.38;5093069;28;20032;-76
2023/03/02 05:54:07;;;;;;;54.83;21.63;;;;;;;-146.27;100.00;48443.41;5093272;28;20490;-78
2023/03/02 05:56:33;;;;;;;54.00;21.42;;;;;;;-146.27;100.00;48425.47;5092686;28;20487;-77
2023/03/02 05:58:58;;;;;;;61.13;22.15;;;;;;;-146.27;100.00;48435.44;5090293;28;20024;-76
2023/03/02 06:01:24;;;;;;;55.70;21.88;;;;;;;-146.27;100.00;48427.47;5089654;28;20024;-78
2023/03/02 06:03:49;;;;;;;50.60;20.52;;;;;;;-146.27;100.00;48443.41;5092703;28;20027;-77
2023/03/02 06:06:15;;;;;;;48.83;20.58;;;;;;;-146.27;100.00;48419.50;5089466;28;20028;-75
2023/03/02 06:08:42;;;;;;;50.78;20.55;;;;;;;-146.27;100.00;48453.38;5094457;28;20024;-76
2023/03/02 06:11:07;;;;;;;50.20;21.15;;;;;;;-146.27;100.00;48467.31;5090159;28;20028;-76
2023/03/02 06:13:33;;;;;;;54.45;19.73;;;;;;;-146.27;100.00;48423.50;5094183;28;20031;-76
2023/03/02 06:15:58;;;;;;;51.97;20.58;;;;;;;-146.27;100.00;48471.28;5092639;28;20515;-76
2023/03/02 06:18:23;;;;;;;51.70;21.52;;;;;;;-146.27;100.00;48463.31;5085526;28;20030;-77
2023/03/02 06:20:50;;;;;;;51.47;21.23;;;;;;;-146.27;100.00;48443.41;5085916;28;20020;-79
2023/03/02 06:23:15;;;;;;;53.05;21.50;;;;;;;-146.27;100.00;48431.47;5086289;28;20032;-78
2023/03/02 06:25:46;;;;;;;42.78;18.80;;;;;;;-146.27;100.00;48443.41;5103508;28;20020;-78
2023/03/02 06:28:12;;;;;;;53.85;21.73;;;;;;;-146.27;100.00;48443.41;5095754;28;20016;-78
2023/03/02 06:30:38;;;;;;;50.88;20.58;;;;;;;-146.27;100.00;48431.47;5089746;28;20078;-78
2023/03/02 06:33:03;;;;;;;51.55;21.58;;;;;;;-146.27;100.00;48449.38;5087660;28;20016;-75
2023/03/02 06:35:28;;;;;;;52.08;21.15;;;;;;;-146.27;100.00;48455.34;5093790;28;20024;-75
2023/03/02 06:37:54;;;;;;;51.28;21.20;;;;;;;-146.27;100.00;48445.41;5089048;28;20542;-78
2023/03/02 06:40:20;;;;;;;51.83;21.15;;;;;;;-146.27;100.00;48437.44;5093384;28;20128;-77
2023/03/02 06:42:46;;;;;;;56.25;21.20;;;;;;;-146.27;100.00;48449.38;5089304;28;20031;-76
2023/03/02 06:45:11;;;;;;;47.15;18.98;;;;;;;-146.27;100.00;48451.38;5087421;28;20023;-76
2023/03/02 06:47:37;;;;;;;46.03;20.10;;;;;;;-146.27;100.00;48419.50;5089434;28;20479;-76
2023/03/02 06:50:03;;;;;;;50.40;20.17;;;;;;;-146.27;100.00;48415.53;5090144;28;20028;-77
2023/03/02 06:52:29;;;;;;;47.53;20.27;;;;;;;-146.27;100.00;48461.34;5092140;28;20106;-77
2023/03/02 06:54:55;;;;;;;73.70;19.55;;;;;;;-146.27;100.00;48447.38;5090537;28;20036;-76
2023/03/02 06:57:20;;;;;;;53.63;22.08;;;;;;;-146.27;100.00;48425.47;5073807;28;20024;-77
2023/03/02 06:59:46;;;;;;;47.13;17.95;;;;;;;-146.27;100.00;48435.44;5090193;28;20031;-77
2023/03/02 07:02:11;;;;;;;51.00;19.95;;;;;;;-146.27;100.00;48467.31;5087019;28;20085;-76
2023/03/02 07:04:37;;;;;;;54.88;19.10;;;;;;;-146.27;100.00;48503.16;5090183;28;20024;-77
2023/03/02 07:07:03;;;;;;;42.92;18.75;;;;;;;-146.27;100.00;48435.44;5088552;28;20101;-76
2023/03/02 07:09:29;;;;;;;51.25;20.75;;;;;;;-146.27;100.00;48425.47;5095945;28;20023;-75
2023/03/02 07:11:56;;;;;;;51.35;19.70;;;;;;;-146.27;100.00;48439.41;5082187;28;20028;-75
2023/03/02 07:14:21;;;;;;;53.83;20.50;;;;;;;-146.27;100.00;48455.34;5092916;28;20032;-76
2023/03/02 07:16:46;;;;;;;51.17;20.40;;;;;;;-146.27;100.00;48447.38;5087250;28;20031;-76
2023/03/02 07:19:12;;;;;;;45.58;19.13;;;;;;;-146.27;100.00;48419.50;5092060;28;20020;-77
2023/03/02 07:21:38;;;;;;;49.85;21.08;;;;;;;-146.27;100.00;48417.50;5090303;28;20573;-77
2023/03/02 07:24:04;;;;;;;47.53;19.45;;;;;;;-146.27;100.00;48439.41;5093201;28;20028;-77
2023/03/02 07:26:29;;;;;;;44.83;19.58;;;;;;;-146.27;100.00;48459.34;5089731;28;20115;-78
2023/03/02 07:28:58;;;;;;;55.75;21.25;;;;;;;-146.27;100.00;48415.53;5084793;28;20028;-76
2023/03/02 07:31:24;;;;;;;45.95;19.58;;;;;;;-146.27;100.00;48437.44;5080509;28;20439;-75
2023/03/02 07:33:49;;;;;;;52.63;20.48;;;;;;;-146.27;100.00;48449.38;5089460;28;20526;-75
2023/03/02 07:36:14;;;;;;;51.83;20.45;;;;;;;-146.27;100.00;48445.41;5085733;28;20059;-77
2023/03/02 07:38:40;;;;;;;49.47;18.88;;;;;;;-146.27;100.00;48443.41;5086026;28;20484;-77
2023/03/02 07:41:07;;;;;;;49.15;20.33;;;;;;;-146.27;100.00;48471.28;5088760;28;20472;-75
2023/03/02 07:43:35;;;;;;;52.25;23.55;;;;;;;-146.27;100.00;48437.44;5080027;28;20024;-78
2023/03/02 07:46:01;;;;;;;51.58;21.40;;;;;;;-146.27;100.00;48441.41;5084937;28;20093;-78
2023/03/02 07:48:27;;;;;;;48.67;20.50;;;;;;;-146.27;100.00;48435.44;5089940;28;20493;-77
2023/03/02 07:50:57;;;;;;;49.40;20.23;;;;;;;-146.27;100.00;48449.38;5091277;28;20015;-76
2023/03/02 07:53:22;;;;;;;47.30;19.33;;;;;;;-146.27;100.00;48423.50;5072580;28;20024;-79
2023/03/02 07:55:48;;;;;;;48.78;20.70;;;;;;;-146.27;100.00;48423.50;5083975;28;20391;-76
2023/03/02 07:58:13;;;;;;;47.58;19.27;;;;;;;-146.27;100.00;48463.31;5090280;28;20035;-77
2023/03/02 08:00:39;;;;;;;55.55;20.20;;;;;;;-146.27;100.00;48463.31;5087602;28;20027;-77
2023/03/02 08:03:06;;;;;;;44.85;19.27;;;;;;;-146.27;100.00;48451.38;5089973;28;20102;-77
2023/03/02 08:05:32;;;;;;;43.83;19.83;;;;;;;-146.27;100.00;48483.25;5083179;28;20024;-75
2023/03/02 08:07:57;;;;;;;47.85;19.75;;;;;;;-146.27;100.00;48441.41;5087105;28;20056;-76
2023/03/02 08:10:24;;;;;;;50.78;19.48;;;;;;;-146.27;100.00;48451.38;5086563;28;20042;-76
2023/03/02 08:12:49;;;;;;;48.25;19.90;;;;;;;-146.27;100.00;48463.31;5087330;28;20020;-76
2023/03/02 08:15:14;;;;;;;46.20;17.90;;;;;;;-146.27;100.00;48429.47;5086902;28;20089;-75
2023/03/02 08:17:40;;;;;;;44.85;17.73;;;;;;;-146.27;100.00;48413.53;5088432;28;20444;-76
2023/03/02 08:20:07;;;;;;;41.90;18.95;;;;;;;-146.27;100.00;48413.53;5087699;28;20406;-75
2023/03/02 08:22:32;;;;;;;43.83;19.17;;;;;;;-146.27;100.00;48463.31;5092983;28;20051;-77
2023/03/02 08:24:57;;;;;;;50.35;18.85;;;;;;;-146.27;100.00;48435.44;5092455;28;20055;-77
2023/03/02 08:27:23;;;;;;;49.08;20.05;;;;;;;-146.27;100.00;48449.38;5090916;28;20115;-75
2023/03/02 08:29:48;;;;;;;46.33;19.35;;;;;;;-146.27;100.00;48475.28;5084736;28;20437;-77
2023/03/02 08:32:14;;;;;;;41.65;18.00;;;;;;;-146.27;100.00;48463.31;5082156;28;20022;-76
2023/03/02 08:34:39;;;;;;;44.95;17.95;;;;;;;-146.27;100.00;48427.47;5087328;28;20027;-77
2023/03/02 08:37:04;;;;;;;45.85;19.38;;;;;;;-146.27;100.00;48481.25;5086790;28;20020;-75
2023/03/02 08:39:31;;;;;;;41.70;18.42;;;;;;;-146.27;100.00;48463.31;5090641;28;20032;-76
2023/03/02 08:41:56;;;;;;;40.20;17.10;;;;;;;-146.27;100.00;48429.47;5082135;28;20470;-77
2023/03/02 08:44:22;;;;;;;36.60;17.00;;;;;;;-146.27;100.00;48415.53;5073137;28;20026;-76
2023/03/02 08:46:48;;;;;;;41.60;18.33;;;;;;;-146.27;100.00;48427.47;5068979;28;20035;-75
2023/03/02 08:49:15;;;;;;;37.00;17.83;;;;;;;-146.27;100.00;48467.31;5077495;28;20016;-75
2023/03/02 08:51:40;;;;;;;45.95;17.58;;;;;;;-146.27;100.00;48439.41;5094660;28;20028;-75
2023/03/02 08:54:06;;;;;;;37.85;16.40;;;;;;;-146.27;100.00;48419.50;5082964;28;20050;-77
2023/03/02 08:56:34;;;;;;;33.95;16.50;;;;;;;-146.27;100.00;48395.59;5080627;28;20086;-76
2023/03/02 08:59:03;;;;;;;41.50;16.45;;;;;;;-146.27;100.00;48449.38;5095747;28;20028;-76
2023/03/02 09:01:32;;;;;;;33.00;15.20;;;;;;;-146.27;100.00;48425.47;5094285;28;20031;-76
2023/03/02 09:03:59;;;;;;;36.72;16.25;;;;;;;-146.27;100.00;48443.41;5089281;28;20026;-77
2023/03/02 09:06:29;;;;;;;40.50;15.80;;;;;;;-146.27;100.00;48439.41;5083517;28;20047;-76
2023/03/02 09:08:55;;;;;;;29.98;14.98;;;;;;;-146.27;100.00;48427.47;5094094;28;20035;-77
2023/03/02 09:11:20;;;;;;;31.20;14.07;;;;;;;-146.27;100.00;48443.41;5094204;28;20031;-77
2023/03/02 09:13:46;;;;;;;33.35;15.40;;;;;;;-146.27;98.88;48435.44;5090305;28;20471;-76
2023/03/02 09:16:12;;;;;;;30.33;14.77;;;;;;;-146.27;96.76;48435.44;5094393;28;20028;-77
2023/03/02 09:18:38;;;;;;;32.50;15.50;;;;;;;-146.27;96.20;48449.38;5092440;28;20028;-76
2023/03/02 09:21:04;;;;;;;29.83;15.48;;;;;;;-146.27;95.83;48411.53;5083106;28;20465;-76
2023/03/02 09:23:30;;;;;;;33.53;13.20;;;;;;;-146.27;94.62;48423.50;5094482;28;20016;-76
2023/03/02 09:25:56;;;;;;;31.98;14.50;;;;;;;-146.27;93.06;48419.50;5089760;28;20077;-76
2023/03/02 09:28:21;;;;;;;33.20;14.77;;;;;;;-146.27;91.53;48429.47;5093818;28;20031;-78
2023/03/02 09:30:50;;;;;;;30.75;15.00;;;;;;;-146.27;90.23;48403.56;5097035;28;20110;-77
2023/03/02 09:33:15;;;;;;;26.55;13.55;;;;;;;-146.27;88.32;48405.56;5095175;28;20020;-75
2023/03/02 09:35:40;;;;;;;25.45;13.32;;;;;;;-146.27;84.58;48407.56;5094851;28;20031;-74
2023/03/02 09:38:06;;;;;;;28.33;13.85;;;;;;;-146.27;84.31;48391.63;5105374;28;20115;-77
2023/03/02 09:40:37;;;;;;;25.02;11.98;;;;;;;-146.27;85.46;48419.50;5088963;28;20020;-77
2023/03/02 09:43:20;;;;;;;24.15;12.68;;;;;;;-146.27;83.87;48445.41;5084080;28;20490;-76
2023/03/02 09:45:57;;;;;;;26.65;12.90;;;;;;;-146.27;83.48;48411.53;5090673;28;20035;-78
2023/03/02 09:48:58;;;;;;;24.65;12.93;;;;;;;-146.27;81.04;48409.53;5090863;28;20440;-78
2023/03/02 09:51:26;;;;;;;21.70;11.75;;;;;;;-146.27;79.37;48369.72;5094357;28;20028;-75
2023/03/02 09:53:56;;;;;;;22.33;11.05;;;;;;;-146.27;77.43;48395.59;5100455;28;20092;-76
2023/03/02 09:56:23;;;;;;;26.10;11.48;;;;;;;-146.27;77.15;48377.69;5092412;28;20035;-77
2023/03/02 09:59:06;;;;;;;24.30;12.50;;;;;;;-146.27;77.35;48375.69;5092980;28;20099;-77
2023/03/02 10:01:44;;;;;;;25.92;11.60;;;;;;;-146.27;75.11;48391.63;5086179;28;20098;-75
2023/03/02 10:04:21;;;;;;;23.90;12.27;;;;;;;-146.27;78.48;48409.53;5090335;28;20061;-76
2023/03/02 10:06:51;;;;;;;24.40;12.40;;;;;;;-146.27;78.61;48375.69;5090667;28;20044;-75
2023/03/02 10:09:17;;;;;;;20.42;11.25;;;;;;;-146.27;78.57;48375.69;5089492;28;20051;-78
2023/03/02 10:11:56;;;;;;;19.15;10.27;;;;;;;-146.27;76.70;48395.59;5092027;28;20020;-77
2023/03/02 10:14:55;;;;;;;27.48;13.27;;;;;;;-146.27;75.40;48371.69;5094176;28;20024;-77
2023/03/02 10:17:53;;;;;;;24.13;11.93;;;;;;;-146.27;75.85;48417.50;5093132;28;20058;-78
2023/03/02 10:20:25;;;;;;;22.83;11.25;;;;;;;-146.27;73.64;48401.56;5096623;28;20024;-77
2023/03/02 10:22:57;;;;;;;22.17;12.18;;;;;;;-146.27;75.51;48363.75;5056808;28;20496;-76
2023/03/02 10:25:30;;;;;;;23.73;11.98;;;;;;;-146.27;73.20;48359.75;5091012;28;20105;-76
2023/03/02 10:28:20;;;;;;;22.80;12.43;;;;;;;-146.27;73.74;48393.63;5094026;28;20035;-77
2023/03/02 10:30:56;;;;;;;20.17;12.13;;;;;;;-146.27;72.98;48379.66;5095070;28;20381;-76
2023/03/02 10:33:22;;;;;;;23.67;12.75;;;;;;;-146.27;72.78;48367.72;5087418;28;20480;-78
2023/03/02 10:35:50;;;;;;;21.92;10.82;;;;;;;-146.27;71.43;48375.69;5086629;28;20081;-76
2023/03/02 10:38:21;;;;;;;22.30;12.07;;;;;;;-146.27;71.58;48373.69;5089173;28;20024;-75
2023/03/02 10:40:58;;;;;;;21.65;11.82;;;;;;;-146.27;69.32;48339.84;5089806;28;20387;-75
2023/03/02 10:43:56;;;;;;;23.33;11.75;;;;;;;-146.27;69.88;48371.69;5082650;28;20399;-78
2023/03/02 10:46:22;;;;;;;21.13;11.13;;;;;;;-146.27;68.94;48339.84;5078113;28;20044;-76
2023/03/02 10:48:58;;;;;;;19.95;11.32;;;;;;;-146.27;67.55;48337.84;5081780;28;20035;-76
2023/03/02 10:51:33;;;;;;;23.17;11.07;;;;;;;-146.27;64.26;48347.81;5082625;28;20399;-75
2023/03/02 10:54:25;;;;;;;18.48;11.55;;;;;;;-146.27;65.01;48345.81;5083147;28;20029;-77
2023/03/02 10:56:53;;;;;;;19.75;11.05;;;;;;;-146.27;64.19;48335.84;5078470;28;20035;-76
2023/03/02 10:59:27;;;;;;;23.80;11.15;;;;;;;-146.27;61.54;48327.88;5084955;28;20020;-75
2023/03/02 11:02:17;;;;;;;18.95;10.63;;;;;;;-146.27;58.53;48385.66;5081379;28;20059;-75